sensor_id;sensor_type;location;lat;lon;timestamp;P1;durP1;ratioP1;P2;durP2;ratioP2
74457;SDS011;62896;51.032;3.712;2022-11-15T00:03:13;27.5;;;18.1;;
74457;SDS011;62896;51.032;3.712;2022-11-15T00:06:33;27.5;;;18.1;;
74457;SDS011;62896;51.032;3.712;2022-11-15T00:09:53;27.5;;;18.1;;
74457;SDS011;62896;51.032;3.712;2022-11-15T00:13:13;23.8;;;15.2;;
74457;SDS011;62896;51.032;3.712;2022-11-15T00:16:33;23.8;;;15.2;;
74457;SDS011;62896;51.032;3.712;2022-11-15T00:19:53;23.8;;;15.2;;
74457;SDS011;62896;51.032;3.712;2022-11-15T00:23:13;23.8;;;15.2;;
74457;SDS011;62896;51.032;3.712;2022-11-15T00:26:33;23.8;;;15.2;;
74457;SDS011;62896;51.032;3.712;2022-11-15T00:29:53;23.8;;;15.2;;
74457;SDS011;62896;51.032;3.712;2022-11-15T00:33:13;23.8;;;15.2;;
74457;SDS011;62896;51.032;3.712;2022-11-15T00:36:33;23.8;;;15.2;;
74457;SDS011;62896;51.032;3.712;2022-11-15T00:39:53;16.8;;;11.8;;
74457;SDS011;62896;51.032;3.712;2022-11-15T00:43:13;16.8;;;11.8;;
74457;SDS011;62896;51.032;3.712;2022-11-15T00:46:33;16.8;;;11.8;;
74457;SDS011;62896;51.032;3.712;2022-11-15T00:49:53;16.8;;;11.8;;
74457;SDS011;62896;51.032;3.712;2022-11-15T00:53:13;16.8;;;11.8;;
74457;SDS011;62896;51.032;3.712;2022-11-15T00:56:33;16.8;;;11.8;;
74457;SDS011;62896;51.032;3.712;2022-11-15T00:59:53;16.8;;;11.8;;
74457;SDS011;62896;51.032;3.712;2022-11-15T01:03:13;17.9;;;12.6;;
74457;SDS011;62896;51.032;3.712;2022-11-15T01:06:33;17.9;;;12.6;;
74457;SDS011;62896;51.032;3.712;2022-11-15T01:09:53;17.9;;;12.6;;
74457;SDS011;62896;51.032;3.712;2022-11-15T01:13:13;17.9;;;12.6;;
74457;SDS011;62896;51.032;3.712;2022-11-15T01:16:33;17.9;;;12.6;;
74457;SDS011;62896;51.032;3.712;2022-11-15T01:19:53;17.9;;;12.6;;
74457;SDS011;62896;51.032;3.712;2022-11-15T01:23:13;17.9;;;12.6;;
74457;SDS011;62896;51.032;3.712;2022-11-15T01:26:33;17.9;;;12.6;;
74457;SDS011;62896;51.032;3.712;2022-11-15T01:29:53;19.7;;;12.9;;
74457;SDS011;62896;51.032;3.712;2022-11-15T01:33:13;19.7;;;12.9;;
74457;SDS011;62896;51.032;3.712;2022-11-15T01:36:33;19.7;;;12.9;;
74457;SDS011;62896;51.032;3.712;2022-11-15T01:39:53;19.7;;;12.9;;
74457;SDS011;62896;51.032;3.712;2022-11-15T01:43:21;19.7;;;12.9;;
74457;SDS011;62896;51.032;3.712;2022-11-15T01:46:33;19.7;;;12.9;;
74457;SDS011;62896;51.032;3.712;2022-11-15T01:49:55;19.7;;;12.9;;
74457;SDS011;62896;51.032;3.712;2022-11-15T01:53:13;18;;;11.2;;
74457;SDS011;62896;51.032;3.712;2022-11-15T01:56:35;18;;;11.2;;
74457;SDS011;62896;51.032;3.712;2022-11-15T01:59:53;18;;;11.2;;
74457;SDS011;62896;51.032;3.712;2022-11-15T02:03:13;18;;;11.2;;
74457;SDS011;62896;51.032;3.712;2022-11-15T02:06:33;18;;;11.2;;
74457;SDS011;62896;51.032;3.712;2022-11-15T02:09:53;18;;;11.2;;
74457;SDS011;62896;51.032;3.712;2022-11-15T02:13:13;18;;;11.2;;
74457;SDS011;62896;51.032;3.712;2022-11-15T02:16:35;18;;;11.2;;
74457;SDS011;62896;51.032;3.712;2022-11-15T02:20:05;16.4;;;9.5;;
74457;SDS011;62896;51.032;3.712;2022-11-15T02:23:18;16.4;;;9.5;;
74457;SDS011;62896;51.032;3.712;2022-11-15T02:26:55;16.4;;;9.5;;
74457;SDS011;62896;51.032;3.712;2022-11-15T02:30:00;16.4;;;9.5;;
74457;SDS011;62896;51.032;3.712;2022-11-15T02:33:16;16.4;;;9.5;;
74457;SDS011;62896;51.032;3.712;2022-11-15T02:36:35;16.4;;;9.5;;
74457;SDS011;62896;51.032;3.712;2022-11-15T02:39:55;16.4;;;9.5;;
74457;SDS011;62896;51.032;3.712;2022-11-15T02:43:14;13.6;;;7.6;;
74457;SDS011;62896;51.032;3.712;2022-11-15T02:46:34;13.6;;;7.6;;
74457;SDS011;62896;51.032;3.712;2022-11-15T02:49:53;13.6;;;7.6;;
74457;SDS011;62896;51.032;3.712;2022-11-15T02:53:14;13.6;;;7.6;;
74457;SDS011;62896;51.032;3.712;2022-11-15T02:56:33;13.6;;;7.6;;
74457;SDS011;62896;51.032;3.712;2022-11-15T02:59:57;13.6;;;7.6;;
74457;SDS011;62896;51.032;3.712;2022-11-15T03:03:17;13.6;;;7.6;;
74457;SDS011;62896;51.032;3.712;2022-11-15T03:06:35;13.6;;;7.6;;
74457;SDS011;62896;51.032;3.712;2022-11-15T03:09:54;14.9;;;6.4;;
74457;SDS011;62896;51.032;3.712;2022-11-15T03:13:16;14.9;;;6.4;;
74457;SDS011;62896;51.032;3.712;2022-11-15T03:16:34;14.9;;;6.4;;
74457;SDS011;62896;51.032;3.712;2022-11-15T03:19:53;14.9;;;6.4;;
74457;SDS011;62896;51.032;3.712;2022-11-15T03:23:13;14.9;;;6.4;;
74457;SDS011;62896;51.032;3.712;2022-11-15T03:26:33;14.9;;;6.4;;
74457;SDS011;62896;51.032;3.712;2022-11-15T03:29:57;14.9;;;6.4;;
74457;SDS011;62896;51.032;3.712;2022-11-15T03:33:13;16.2;;;5.1;;
74457;SDS011;62896;51.032;3.712;2022-11-15T03:36:33;16.2;;;5.1;;
74457;SDS011;62896;51.032;3.712;2022-11-15T03:39:53;16.2;;;5.1;;
74457;SDS011;62896;51.032;3.712;2022-11-15T03:43:15;16.2;;;5.1;;
74457;SDS011;62896;51.032;3.712;2022-11-15T03:46:33;16.2;;;5.1;;
74457;SDS011;62896;51.032;3.712;2022-11-15T03:49:53;16.2;;;5.1;;
74457;SDS011;62896;51.032;3.712;2022-11-15T03:53:13;16.2;;;5.1;;
74457;SDS011;62896;51.032;3.712;2022-11-15T03:56:33;16.2;;;5.1;;
74457;SDS011;62896;51.032;3.712;2022-11-15T03:59:53;10.4;;;4.4;;
74457;SDS011;62896;51.032;3.712;2022-11-15T04:03:13;10.4;;;4.4;;
74457;SDS011;62896;51.032;3.712;2022-11-15T04:06:33;10.4;;;4.4;;
74457;SDS011;62896;51.032;3.712;2022-11-15T04:09:53;10.4;;;4.4;;
74457;SDS011;62896;51.032;3.712;2022-11-15T04:13:13;10.4;;;4.4;;
74457;SDS011;62896;51.032;3.712;2022-11-15T04:16:33;10.4;;;4.4;;
74457;SDS011;62896;51.032;3.712;2022-11-15T04:19:53;10.4;;;4.4;;
74457;SDS011;62896;51.032;3.712;2022-11-15T04:23:14;10.3;;;4.2;;
74457;SDS011;62896;51.032;3.712;2022-11-15T04:26:33;10.3;;;4.2;;
74457;SDS011;62896;51.032;3.712;2022-11-15T04:29:53;10.3;;;4.2;;
74457;SDS011;62896;51.032;3.712;2022-11-15T04:33:13;10.3;;;4.2;;
74457;SDS011;62896;51.032;3.712;2022-11-15T04:36:33;10.3;;;4.2;;
74457;SDS011;62896;51.032;3.712;2022-11-15T04:39:53;10.3;;;4.2;;
74457;SDS011;62896;51.032;3.712;2022-11-15T04:43:13;10.3;;;4.2;;
74457;SDS011;62896;51.032;3.712;2022-11-15T04:46:33;10.3;;;4.2;;
74457;SDS011;62896;51.032;3.712;2022-11-15T04:49:53;8.7;;;3.9;;
74457;SDS011;62896;51.032;3.712;2022-11-15T04:53:13;8.7;;;3.9;;
74457;SDS011;62896;51.032;3.712;2022-11-15T04:56:33;8.7;;;3.9;;
74457;SDS011;62896;51.032;3.712;2022-11-15T04:59:53;8.7;;;3.9;;
74457;SDS011;62896;51.032;3.712;2022-11-15T05:03:13;8.7;;;3.9;;
74457;SDS011;62896;51.032;3.712;2022-11-15T05:06:33;8.7;;;3.9;;
74457;SDS011;62896;51.032;3.712;2022-11-15T05:09:53;8.7;;;3.9;;
74457;SDS011;62896;51.032;3.712;2022-11-15T05:13:13;10.2;;;3.5;;
74457;SDS011;62896;51.032;3.712;2022-11-15T05:16:33;10.2;;;3.5;;
74457;SDS011;62896;51.032;3.712;2022-11-15T05:19:53;10.2;;;3.5;;
74457;SDS011;62896;51.032;3.712;2022-11-15T05:23:13;10.2;;;3.5;;
74457;SDS011;62896;51.032;3.712;2022-11-15T05:26:33;10.2;;;3.5;;
74457;SDS011;62896;51.032;3.712;2022-11-15T05:29:53;10.2;;;3.5;;
74457;SDS011;62896;51.032;3.712;2022-11-15T05:33:13;10.2;;;3.5;;
74457;SDS011;62896;51.032;3.712;2022-11-15T05:36:34;10.2;;;3.5;;
74457;SDS011;62896;51.032;3.712;2022-11-15T05:39:53;11.7;;;3.4;;
74457;SDS011;62896;51.032;3.712;2022-11-15T05:43:13;11.7;;;3.4;;
74457;SDS011;62896;51.032;3.712;2022-11-15T05:46:33;11.7;;;3.4;;
74457;SDS011;62896;51.032;3.712;2022-11-15T05:49:53;11.7;;;3.4;;
74457;SDS011;62896;51.032;3.712;2022-11-15T05:53:14;11.7;;;3.4;;
74457;SDS011;62896;51.032;3.712;2022-11-15T05:56:33;11.7;;;3.4;;
74457;SDS011;62896;51.032;3.712;2022-11-15T05:59:53;11.7;;;3.4;;
74457;SDS011;62896;51.032;3.712;2022-11-15T06:03:13;10.5;;;3.3;;
74457;SDS011;62896;51.032;3.712;2022-11-15T06:06:33;10.5;;;3.3;;
74457;SDS011;62896;51.032;3.712;2022-11-15T06:09:53;10.5;;;3.3;;
74457;SDS011;62896;51.032;3.712;2022-11-15T06:13:13;10.5;;;3.3;;
74457;SDS011;62896;51.032;3.712;2022-11-15T06:16:33;10.5;;;3.3;;
74457;SDS011;62896;51.032;3.712;2022-11-15T06:19:53;10.5;;;3.3;;
74457;SDS011;62896;51.032;3.712;2022-11-15T06:23:13;10.5;;;3.3;;
74457;SDS011;62896;51.032;3.712;2022-11-15T06:26:33;10.5;;;3.3;;
74457;SDS011;62896;51.032;3.712;2022-11-15T06:29:53;9.5;;;3.8;;
74457;SDS011;62896;51.032;3.712;2022-11-15T06:33:13;9.5;;;3.8;;
74457;SDS011;62896;51.032;3.712;2022-11-15T06:36:33;9.5;;;3.8;;
74457;SDS011;62896;51.032;3.712;2022-11-15T06:39:53;9.5;;;3.8;;
74457;SDS011;62896;51.032;3.712;2022-11-15T06:43:13;9.5;;;3.8;;
74457;SDS011;62896;51.032;3.712;2022-11-15T06:46:33;9.5;;;3.8;;
74457;SDS011;62896;51.032;3.712;2022-11-15T06:49:53;9.5;;;3.8;;
74457;SDS011;62896;51.032;3.712;2022-11-15T06:53:13;9.5;;;4.2;;
74457;SDS011;62896;51.032;3.712;2022-11-15T06:56:33;9.5;;;4.2;;
74457;SDS011;62896;51.032;3.712;2022-11-15T06:59:53;9.5;;;4.2;;
74457;SDS011;62896;51.032;3.712;2022-11-15T07:03:13;9.5;;;4.2;;
74457;SDS011;62896;51.032;3.712;2022-11-15T07:06:33;9.5;;;4.2;;
74457;SDS011;62896;51.032;3.712;2022-11-15T07:09:53;9.5;;;4.2;;
74457;SDS011;62896;51.032;3.712;2022-11-15T07:13:13;9.5;;;4.2;;
74457;SDS011;62896;51.032;3.712;2022-11-15T07:16:33;9.5;;;4.2;;
74457;SDS011;62896;51.032;3.712;2022-11-15T07:19:53;9.8;;;4.5;;
74457;SDS011;62896;51.032;3.712;2022-11-15T07:23:13;9.8;;;4.5;;
74457;SDS011;62896;51.032;3.712;2022-11-15T07:26:33;9.8;;;4.5;;
74457;SDS011;62896;51.032;3.712;2022-11-15T07:29:53;9.8;;;4.5;;
74457;SDS011;62896;51.032;3.712;2022-11-15T07:33:13;9.8;;;4.5;;
74457;SDS011;62896;51.032;3.712;2022-11-15T07:36:33;9.8;;;4.5;;
74457;SDS011;62896;51.032;3.712;2022-11-15T07:39:53;9.8;;;4.5;;
74457;SDS011;62896;51.032;3.712;2022-11-15T07:43:13;12;;;4.3;;
74457;SDS011;62896;51.032;3.712;2022-11-15T07:46:33;12;;;4.3;;
74457;SDS011;62896;51.032;3.712;2022-11-15T07:49:53;12;;;4.3;;
74457;SDS011;62896;51.032;3.712;2022-11-15T07:53:13;12;;;4.3;;
74457;SDS011;62896;51.032;3.712;2022-11-15T07:56:33;12;;;4.3;;
74457;SDS011;62896;51.032;3.712;2022-11-15T07:59:53;12;;;4.3;;
74457;SDS011;62896;51.032;3.712;2022-11-15T08:03:13;12;;;4.3;;
74457;SDS011;62896;51.032;3.712;2022-11-15T08:06:33;12;;;4.3;;
74457;SDS011;62896;51.032;3.712;2022-11-15T08:09:53;9.8;;;4.1;;
74457;SDS011;62896;51.032;3.712;2022-11-15T08:13:13;9.8;;;4.1;;
74457;SDS011;62896;51.032;3.712;2022-11-15T08:16:33;9.8;;;4.1;;
74457;SDS011;62896;51.032;3.712;2022-11-15T08:19:53;9.8;;;4.1;;
74457;SDS011;62896;51.032;3.712;2022-11-15T08:23:13;9.8;;;4.1;;
74457;SDS011;62896;51.032;3.712;2022-11-15T08:26:33;9.8;;;4.1;;
74457;SDS011;62896;51.032;3.712;2022-11-15T08:29:53;9.8;;;4.1;;
74457;SDS011;62896;51.032;3.712;2022-11-15T08:33:13;10.1;;;3.5;;
74457;SDS011;62896;51.032;3.712;2022-11-15T08:36:33;10.1;;;3.5;;
74457;SDS011;62896;51.032;3.712;2022-11-15T08:39:53;10.1;;;3.5;;
74457;SDS011;62896;51.032;3.712;2022-11-15T08:43:13;10.1;;;3.5;;
74457;SDS011;62896;51.032;3.712;2022-11-15T08:46:33;10.1;;;3.5;;
74457;SDS011;62896;51.032;3.712;2022-11-15T08:49:53;10.1;;;3.5;;
74457;SDS011;62896;51.032;3.712;2022-11-15T08:53:13;10.1;;;3.5;;
74457;SDS011;62896;51.032;3.712;2022-11-15T08:56:33;10.1;;;3.5;;
74457;SDS011;62896;51.032;3.712;2022-11-15T08:59:53;9.5;;;2.3;;
74457;SDS011;62896;51.032;3.712;2022-11-15T09:03:13;9.5;;;2.3;;
74457;SDS011;62896;51.032;3.712;2022-11-15T09:06:33;9.5;;;2.3;;
74457;SDS011;62896;51.032;3.712;2022-11-15T09:09:53;9.5;;;2.3;;
74457;SDS011;62896;51.032;3.712;2022-11-15T09:13:13;9.5;;;2.3;;
74457;SDS011;62896;51.032;3.712;2022-11-15T09:16:33;9.5;;;2.3;;
74457;SDS011;62896;51.032;3.712;2022-11-15T09:19:53;9.5;;;2.3;;
74457;SDS011;62896;51.032;3.712;2022-11-15T09:23:13;13.1;;;2.9;;
74457;SDS011;62896;51.032;3.712;2022-11-15T09:26:33;13.1;;;2.9;;
74457;SDS011;62896;51.032;3.712;2022-11-15T09:29:53;13.1;;;2.9;;
74457;SDS011;62896;51.032;3.712;2022-11-15T09:33:13;13.1;;;2.9;;
74457;SDS011;62896;51.032;3.712;2022-11-15T09:36:33;13.1;;;2.9;;
74457;SDS011;62896;51.032;3.712;2022-11-15T09:39:53;13.1;;;2.9;;
74457;SDS011;62896;51.032;3.712;2022-11-15T09:43:24;13.1;;;2.9;;
74457;SDS011;62896;51.032;3.712;2022-11-15T09:46:36;13.1;;;2.9;;
74457;SDS011;62896;51.032;3.712;2022-11-15T09:49:53;6.1;;;1.5;;
74457;SDS011;62896;51.032;3.712;2022-11-15T09:53:14;6.1;;;1.5;;
74457;SDS011;62896;51.032;3.712;2022-11-15T09:56:35;6.1;;;1.5;;
74457;SDS011;62896;51.032;3.712;2022-11-15T09:59:55;6.1;;;1.5;;
74457;SDS011;62896;51.032;3.712;2022-11-15T10:03:13;6.1;;;1.5;;
74457;SDS011;62896;51.032;3.712;2022-11-15T10:06:33;6.1;;;1.5;;
74457;SDS011;62896;51.032;3.712;2022-11-15T10:09:53;6.1;;;1.5;;
74457;SDS011;62896;51.032;3.712;2022-11-15T10:13:22;5.9;;;1.4;;
74457;SDS011;62896;51.032;3.712;2022-11-15T10:16:37;5.9;;;1.4;;
74457;SDS011;62896;51.032;3.712;2022-11-15T10:19:55;5.9;;;1.4;;
74457;SDS011;62896;51.032;3.712;2022-11-15T10:23:13;5.9;;;1.4;;
74457;SDS011;62896;51.032;3.712;2022-11-15T10:26:33;5.9;;;1.4;;
74457;SDS011;62896;51.032;3.712;2022-11-15T10:29:53;5.9;;;1.4;;
74457;SDS011;62896;51.032;3.712;2022-11-15T10:33:16;5.9;;;1.4;;
74457;SDS011;62896;51.032;3.712;2022-11-15T10:36:33;5.9;;;1.4;;
74457;SDS011;62896;51.032;3.712;2022-11-15T10:40:02;7.7;;;1.4;;
74457;SDS011;62896;51.032;3.712;2022-11-15T10:43:14;7.7;;;1.4;;
74457;SDS011;62896;51.032;3.712;2022-11-15T10:46:33;7.7;;;1.4;;
74457;SDS011;62896;51.032;3.712;2022-11-15T10:49:54;7.7;;;1.4;;
74457;SDS011;62896;51.032;3.712;2022-11-15T10:53:15;7.7;;;1.4;;
74457;SDS011;62896;51.032;3.712;2022-11-15T10:56:33;7.7;;;1.4;;
74457;SDS011;62896;51.032;3.712;2022-11-15T10:59:54;7.7;;;1.4;;
74457;SDS011;62896;51.032;3.712;2022-11-15T11:03:23;6.5;;;1.4;;
74457;SDS011;62896;51.032;3.712;2022-11-15T11:06:45;6.5;;;1.4;;
74457;SDS011;62896;51.032;3.712;2022-11-15T11:09:57;6.5;;;1.4;;
74457;SDS011;62896;51.032;3.712;2022-11-15T11:13:14;6.5;;;1.4;;
74457;SDS011;62896;51.032;3.712;2022-11-15T11:16:38;6.5;;;1.4;;
74457;SDS011;62896;51.032;3.712;2022-11-15T11:19:56;6.5;;;1.4;;
74457;SDS011;62896;51.032;3.712;2022-11-15T11:23:17;6.5;;;1.4;;
74457;SDS011;62896;51.032;3.712;2022-11-15T11:26:35;6.5;;;1.4;;
74457;SDS011;62896;51.032;3.712;2022-11-15T11:29:57;5.9;;;1.4;;
74457;SDS011;62896;51.032;3.712;2022-11-15T11:33:15;5.9;;;1.4;;
74457;SDS011;62896;51.032;3.712;2022-11-15T11:36:36;5.9;;;1.4;;
74457;SDS011;62896;51.032;3.712;2022-11-15T11:39:56;5.9;;;1.4;;
74457;SDS011;62896;51.032;3.712;2022-11-15T11:43:15;5.9;;;1.4;;
74457;SDS011;62896;51.032;3.712;2022-11-15T11:46:38;5.9;;;1.4;;
74457;SDS011;62896;51.032;3.712;2022-11-15T11:49:53;5.9;;;1.4;;
74457;SDS011;62896;51.032;3.712;2022-11-15T11:53:14;6;;;1.2;;
74457;SDS011;62896;51.032;3.712;2022-11-15T11:56:33;6;;;1.2;;
74457;SDS011;62896;51.032;3.712;2022-11-15T11:59:55;6;;;1.2;;
74457;SDS011;62896;51.032;3.712;2022-11-15T12:03:14;6;;;1.2;;
74457;SDS011;62896;51.032;3.712;2022-11-15T12:06:33;6;;;1.2;;
74457;SDS011;62896;51.032;3.712;2022-11-15T12:09:54;6;;;1.2;;
74457;SDS011;62896;51.032;3.712;2022-11-15T12:13:15;6;;;1.2;;
74457;SDS011;62896;51.032;3.712;2022-11-15T12:16:33;6;;;1.2;;
74457;SDS011;62896;51.032;3.712;2022-11-15T12:19:55;5.6;;;1.2;;
74457;SDS011;62896;51.032;3.712;2022-11-15T12:23:13;5.6;;;1.2;;
74457;SDS011;62896;51.032;3.712;2022-11-15T12:26:34;5.6;;;1.2;;
74457;SDS011;62896;51.032;3.712;2022-11-15T12:29:53;5.6;;;1.2;;
74457;SDS011;62896;51.032;3.712;2022-11-15T12:33:47;5.6;;;1.2;;
74457;SDS011;62896;51.032;3.712;2022-11-15T12:36:34;5.6;;;1.2;;
74457;SDS011;62896;51.032;3.712;2022-11-15T12:40:03;5.6;;;1.2;;
74457;SDS011;62896;51.032;3.712;2022-11-15T12:46:58;7;;;1.5;;
74457;SDS011;62896;51.032;3.712;2022-11-15T12:49:53;7;;;1.5;;
74457;SDS011;62896;51.032;3.712;2022-11-15T12:53:29;7;;;1.5;;
74457;SDS011;62896;51.032;3.712;2022-11-15T12:56:33;7;;;1.5;;
74457;SDS011;62896;51.032;3.712;2022-11-15T12:59:53;7;;;1.5;;
74457;SDS011;62896;51.032;3.712;2022-11-15T13:03:17;7;;;1.5;;
74457;SDS011;62896;51.032;3.712;2022-11-15T13:06:34;7;;;1.5;;
74457;SDS011;62896;51.032;3.712;2022-11-15T13:09:53;5.3;;;1.3;;
74457;SDS011;62896;51.032;3.712;2022-11-15T13:13:13;5.3;;;1.3;;
74457;SDS011;62896;51.032;3.712;2022-11-15T13:16:33;5.3;;;1.3;;
74457;SDS011;62896;51.032;3.712;2022-11-15T13:19:55;5.3;;;1.3;;
74457;SDS011;62896;51.032;3.712;2022-11-15T13:23:13;5.3;;;1.3;;
74457;SDS011;62896;51.032;3.712;2022-11-15T13:26:33;5.3;;;1.3;;
74457;SDS011;62896;51.032;3.712;2022-11-15T13:29:53;5.3;;;1.3;;
74457;SDS011;62896;51.032;3.712;2022-11-15T13:33:14;5.3;;;1.2;;
74457;SDS011;62896;51.032;3.712;2022-11-15T13:36:33;5.3;;;1.2;;
74457;SDS011;62896;51.032;3.712;2022-11-15T13:39:53;5.3;;;1.2;;
74457;SDS011;62896;51.032;3.712;2022-11-15T13:43:17;5.3;;;1.2;;
74457;SDS011;62896;51.032;3.712;2022-11-15T13:46:33;5.3;;;1.2;;
74457;SDS011;62896;51.032;3.712;2022-11-15T13:49:53;5.3;;;1.2;;
74457;SDS011;62896;51.032;3.712;2022-11-15T13:53:13;5.3;;;1.2;;
74457;SDS011;62896;51.032;3.712;2022-11-15T13:56:33;5.3;;;1.2;;
74457;SDS011;62896;51.032;3.712;2022-11-15T13:59:53;3.7;;;1.1;;
74457;SDS011;62896;51.032;3.712;2022-11-15T14:03:15;3.7;;;1.1;;
74457;SDS011;62896;51.032;3.712;2022-11-15T14:06:33;3.7;;;1.1;;
74457;SDS011;62896;51.032;3.712;2022-11-15T14:09:53;3.7;;;1.1;;
74457;SDS011;62896;51.032;3.712;2022-11-15T14:13:26;3.7;;;1.1;;
74457;SDS011;62896;51.032;3.712;2022-11-15T14:16:33;3.7;;;1.1;;
74457;SDS011;62896;51.032;3.712;2022-11-15T14:19:53;3.7;;;1.1;;
74457;SDS011;62896;51.032;3.712;2022-11-15T14:23:18;2.9;;;1.1;;
74457;SDS011;62896;51.032;3.712;2022-11-15T14:26:34;2.9;;;1.1;;
74457;SDS011;62896;51.032;3.712;2022-11-15T14:29:53;2.9;;;1.1;;
74457;SDS011;62896;51.032;3.712;2022-11-15T14:33:17;2.9;;;1.1;;
74457;SDS011;62896;51.032;3.712;2022-11-15T14:36:33;2.9;;;1.1;;
74457;SDS011;62896;51.032;3.712;2022-11-15T14:39:53;2.9;;;1.1;;
74457;SDS011;62896;51.032;3.712;2022-11-15T14:43:13;2.9;;;1.1;;
74457;SDS011;62896;51.032;3.712;2022-11-15T14:46:33;2.9;;;1.1;;
74457;SDS011;62896;51.032;3.712;2022-11-15T14:49:53;4.4;;;1.3;;
74457;SDS011;62896;51.032;3.712;2022-11-15T14:53:13;4.4;;;1.3;;
74457;SDS011;62896;51.032;3.712;2022-11-15T14:56:33;4.4;;;1.3;;
74457;SDS011;62896;51.032;3.712;2022-11-15T14:59:53;4.4;;;1.3;;
74457;SDS011;62896;51.032;3.712;2022-11-15T15:03:13;4.4;;;1.3;;
74457;SDS011;62896;51.032;3.712;2022-11-15T15:06:33;4.4;;;1.3;;
74457;SDS011;62896;51.032;3.712;2022-11-15T15:09:53;4.4;;;1.3;;
74457;SDS011;62896;51.032;3.712;2022-11-15T15:13:16;4.9;;;1.7;;
74457;SDS011;62896;51.032;3.712;2022-11-15T15:16:33;4.9;;;1.7;;
74457;SDS011;62896;51.032;3.712;2022-11-15T15:19:53;4.9;;;1.7;;
74457;SDS011;62896;51.032;3.712;2022-11-15T15:23:14;4.9;;;1.7;;
74457;SDS011;62896;51.032;3.712;2022-11-15T15:26:33;4.9;;;1.7;;
74457;SDS011;62896;51.032;3.712;2022-11-15T15:29:53;4.9;;;1.7;;
74457;SDS011;62896;51.032;3.712;2022-11-15T15:33:13;4.9;;;1.7;;
74457;SDS011;62896;51.032;3.712;2022-11-15T15:36:33;4.9;;;1.7;;
74457;SDS011;62896;51.032;3.712;2022-11-15T15:39:53;3.5;;;2.1;;
74457;SDS011;62896;51.032;3.712;2022-11-15T15:43:13;3.5;;;2.1;;
74457;SDS011;62896;51.032;3.712;2022-11-15T15:46:33;3.5;;;2.1;;
74457;SDS011;62896;51.032;3.712;2022-11-15T15:49:53;3.5;;;2.1;;
74457;SDS011;62896;51.032;3.712;2022-11-15T15:53:13;3.5;;;2.1;;
74457;SDS011;62896;51.032;3.712;2022-11-15T15:56:33;3.5;;;2.1;;
74457;SDS011;62896;51.032;3.712;2022-11-15T15:59:53;3.5;;;2.1;;
74457;SDS011;62896;51.032;3.712;2022-11-15T16:03:13;4.8;;;2.2;;
74457;SDS011;62896;51.032;3.712;2022-11-15T16:06:35;4.8;;;2.2;;
74457;SDS011;62896;51.032;3.712;2022-11-15T16:09:53;4.8;;;2.2;;
74457;SDS011;62896;51.032;3.712;2022-11-15T16:13:13;4.8;;;2.2;;
74457;SDS011;62896;51.032;3.712;2022-11-15T16:16:33;4.8;;;2.2;;
74457;SDS011;62896;51.032;3.712;2022-11-15T16:19:53;4.8;;;2.2;;
74457;SDS011;62896;51.032;3.712;2022-11-15T16:23:13;4.8;;;2.2;;
74457;SDS011;62896;51.032;3.712;2022-11-15T16:26:33;4.8;;;2.2;;
74457;SDS011;62896;51.032;3.712;2022-11-15T16:29:53;6.3;;;3.5;;
74457;SDS011;62896;51.032;3.712;2022-11-15T16:33:13;6.3;;;3.5;;
74457;SDS011;62896;51.032;3.712;2022-11-15T16:36:33;6.3;;;3.5;;
74457;SDS011;62896;51.032;3.712;2022-11-15T16:39:53;6.3;;;3.5;;
74457;SDS011;62896;51.032;3.712;2022-11-15T16:43:13;6.3;;;3.5;;
74457;SDS011;62896;51.032;3.712;2022-11-15T16:46:33;6.3;;;3.5;;
74457;SDS011;62896;51.032;3.712;2022-11-15T16:49:53;6.3;;;3.5;;
74457;SDS011;62896;51.032;3.712;2022-11-15T16:53:13;3.4;;;2.2;;
74457;SDS011;62896;51.032;3.712;2022-11-15T20:39:52;5.7;;;4.7;;
74457;SDS011;62896;51.032;3.712;2022-11-15T20:43:13;5.7;;;4.7;;
74457;SDS011;62896;51.032;3.712;2022-11-15T20:46:32;5.7;;;4.7;;
74457;SDS011;62896;51.032;3.712;2022-11-15T20:49:52;5.7;;;4.7;;
74457;SDS011;62896;51.032;3.712;2022-11-15T20:53:13;5.7;;;4.7;;
74457;SDS011;62896;51.032;3.712;2022-11-15T20:56:32;5.7;;;4.7;;
74457;SDS011;62896;51.032;3.712;2022-11-15T20:59:52;5.7;;;4.7;;
74457;SDS011;62896;51.032;3.712;2022-11-15T21:03:12;7.5;;;4.6;;
74457;SDS011;62896;51.032;3.712;2022-11-15T21:06:32;7.5;;;4.6;;
74457;SDS011;62896;51.032;3.712;2022-11-15T21:09:52;7.5;;;4.6;;
74457;SDS011;62896;51.032;3.712;2022-11-15T21:13:12;7.5;;;4.6;;
74457;SDS011;62896;51.032;3.712;2022-11-15T21:16:32;7.5;;;4.6;;
74457;SDS011;62896;51.032;3.712;2022-11-15T21:19:52;7.5;;;4.6;;
74457;SDS011;62896;51.032;3.712;2022-11-15T21:23:12;7.5;;;4.6;;
74457;SDS011;62896;51.032;3.712;2022-11-15T21:26:32;7.5;;;4.6;;
74457;SDS011;62896;51.032;3.712;2022-11-15T21:29:52;5.4;;;4.6;;
74457;SDS011;62896;51.032;3.712;2022-11-15T21:33:12;5.4;;;4.6;;
74457;SDS011;62896;51.032;3.712;2022-11-15T21:36:32;5.4;;;4.6;;
74457;SDS011;62896;51.032;3.712;2022-11-15T21:39:52;5.4;;;4.6;;
74457;SDS011;62896;51.032;3.712;2022-11-15T21:43:12;5.4;;;4.6;;
74457;SDS011;62896;51.032;3.712;2022-11-15T21:46:32;5.4;;;4.6;;
74457;SDS011;62896;51.032;3.712;2022-11-15T21:49:52;5.4;;;4.6;;
74457;SDS011;62896;51.032;3.712;2022-11-15T21:53:12;6.5;;;5;;
74457;SDS011;62896;51.032;3.712;2022-11-15T21:56:32;6.5;;;5;;
74457;SDS011;62896;51.032;3.712;2022-11-15T21:59:52;6.5;;;5;;
74457;SDS011;62896;51.032;3.712;2022-11-15T22:03:12;6.5;;;5;;
74457;SDS011;62896;51.032;3.712;2022-11-15T22:06:32;6.5;;;5;;
74457;SDS011;62896;51.032;3.712;2022-11-15T22:09:52;6.5;;;5;;
74457;SDS011;62896;51.032;3.712;2022-11-15T22:13:12;6.5;;;5;;
74457;SDS011;62896;51.032;3.712;2022-11-15T22:16:32;6.5;;;5;;
74457;SDS011;62896;51.032;3.712;2022-11-15T22:19:52;6.5;;;4.4;;
74457;SDS011;62896;51.032;3.712;2022-11-15T22:23:12;6.5;;;4.4;;
74457;SDS011;62896;51.032;3.712;2022-11-15T22:26:32;6.5;;;4.4;;
74457;SDS011;62896;51.032;3.712;2022-11-15T22:29:52;6.5;;;4.4;;
74457;SDS011;62896;51.032;3.712;2022-11-15T22:33:12;6.5;;;4.4;;
74457;SDS011;62896;51.032;3.712;2022-11-15T22:36:32;6.5;;;4.4;;
74457;SDS011;62896;51.032;3.712;2022-11-15T22:39:52;6.5;;;4.4;;
74457;SDS011;62896;51.032;3.712;2022-11-15T22:43:13;6.5;;;4.6;;
74457;SDS011;62896;51.032;3.712;2022-11-15T22:46:32;6.5;;;4.6;;
74457;SDS011;62896;51.032;3.712;2022-11-15T22:49:52;6.5;;;4.6;;
74457;SDS011;62896;51.032;3.712;2022-11-15T22:53:12;6.5;;;4.6;;
74457;SDS011;62896;51.032;3.712;2022-11-15T22:56:32;6.5;;;4.6;;
74457;SDS011;62896;51.032;3.712;2022-11-15T22:59:52;6.5;;;4.6;;
74457;SDS011;62896;51.032;3.712;2022-11-15T23:03:12;6.5;;;4.6;;
74457;SDS011;62896;51.032;3.712;2022-11-15T23:06:32;6.5;;;4.6;;
74457;SDS011;62896;51.032;3.712;2022-11-15T23:09:52;5.9;;;3.2;;
74457;SDS011;62896;51.032;3.712;2022-11-15T23:13:12;5.9;;;3.2;;
74457;SDS011;62896;51.032;3.712;2022-11-15T23:16:32;5.9;;;3.2;;
74457;SDS011;62896;51.032;3.712;2022-11-15T23:19:52;5.9;;;3.2;;
74457;SDS011;62896;51.032;3.712;2022-11-15T23:23:12;5.9;;;3.2;;
74457;SDS011;62896;51.032;3.712;2022-11-15T23:26:32;5.9;;;3.2;;
74457;SDS011;62896;51.032;3.712;2022-11-15T23:29:52;5.9;;;3.2;;
74457;SDS011;62896;51.032;3.712;2022-11-15T23:33:13;4.5;;;2.7;;
74457;SDS011;62896;51.032;3.712;2022-11-15T23:36:32;4.5;;;2.7;;
74457;SDS011;62896;51.032;3.712;2022-11-15T23:39:52;4.5;;;2.7;;
74457;SDS011;62896;51.032;3.712;2022-11-15T23:43:12;4.5;;;2.7;;
74457;SDS011;62896;51.032;3.712;2022-11-15T23:46:32;4.5;;;2.7;;
74457;SDS011;62896;51.032;3.712;2022-11-15T23:49:52;4.5;;;2.7;;
74457;SDS011;62896;51.032;3.712;2022-11-15T23:53:12;4.5;;;2.7;;
74457;SDS011;62896;51.032;3.712;2022-11-15T23:56:33;4.5;;;2.7;;
74457;SDS011;62896;51.032;3.712;2022-11-15T23:59:52;3.1;;;1.8;;
